sensor_id;sensor_type;location;lat;lon;timestamp;P1;durP1;ratioP1;P2;durP2;ratioP2
37459;SDS011;23318;50.966;5.284;2022-08-19T00:00:19;23.90;;;19.58;;
37459;SDS011;23318;50.966;5.284;2022-08-19T00:02:45;20.25;;;18.15;;
37459;SDS011;23318;50.966;5.284;2022-08-19T00:05:11;16.60;;;15.00;;
37459;SDS011;23318;50.966;5.284;2022-08-19T00:07:40;15.45;;;14.00;;
37459;SDS011;23318;50.966;5.284;2022-08-19T00:10:08;15.38;;;13.82;;
37459;SDS011;23318;50.966;5.284;2022-08-19T00:12:35;16.85;;;15.23;;
37459;SDS011;23318;50.966;5.284;2022-08-19T00:15:03;18.30;;;16.17;;
37459;SDS011;23318;50.966;5.284;2022-08-19T00:17:30;19.70;;;16.00;;
37459;SDS011;23318;50.966;5.284;2022-08-19T00:19:55;19.23;;;16.92;;
37459;SDS011;23318;50.966;5.284;2022-08-19T00:22:21;18.30;;;16.33;;
37459;SDS011;23318;50.966;5.284;2022-08-19T00:24:47;18.42;;;16.05;;
37459;SDS011;23318;50.966;5.284;2022-08-19T00:27:13;17.73;;;15.88;;
37459;SDS011;23318;50.966;5.284;2022-08-19T00:29:39;16.95;;;15.15;;
37459;SDS011;23318;50.966;5.284;2022-08-19T00:32:05;19.25;;;17.25;;
37459;SDS011;23318;50.966;5.284;2022-08-19T00:34:31;18.27;;;16.55;;
37459;SDS011;23318;50.966;5.284;2022-08-19T00:36:57;20.92;;;18.67;;
37459;SDS011;23318;50.966;5.284;2022-08-19T00:39:24;20.35;;;18.23;;
37459;SDS011;23318;50.966;5.284;2022-08-19T00:41:50;23.50;;;21.02;;
37459;SDS011;23318;50.966;5.284;2022-08-19T00:44:21;22.77;;;20.27;;
37459;SDS011;23318;50.966;5.284;2022-08-19T00:46:49;21.45;;;19.17;;
37459;SDS011;23318;50.966;5.284;2022-08-19T00:49:20;21.88;;;17.52;;
37459;SDS011;23318;50.966;5.284;2022-08-19T00:51:53;21.55;;;19.33;;
37459;SDS011;23318;50.966;5.284;2022-08-19T00:54:24;19.65;;;17.17;;
37459;SDS011;23318;50.966;5.284;2022-08-19T00:56:50;26.42;;;23.10;;
37459;SDS011;23318;50.966;5.284;2022-08-19T00:59:16;26.77;;;21.25;;
37459;SDS011;23318;50.966;5.284;2022-08-19T01:01:44;23.40;;;20.98;;
37459;SDS011;23318;50.966;5.284;2022-08-19T01:04:11;27.42;;;22.52;;
37459;SDS011;23318;50.966;5.284;2022-08-19T01:06:37;28.65;;;22.25;;
37459;SDS011;23318;50.966;5.284;2022-08-19T01:09:05;28.45;;;24.13;;
37459;SDS011;23318;50.966;5.284;2022-08-19T01:11:32;28.63;;;25.55;;
37459;SDS011;23318;50.966;5.284;2022-08-19T01:14:03;29.05;;;23.77;;
37459;SDS011;23318;50.966;5.284;2022-08-19T01:16:30;27.45;;;24.55;;
37459;SDS011;23318;50.966;5.284;2022-08-19T01:18:57;29.80;;;25.45;;
37459;SDS011;23318;50.966;5.284;2022-08-19T01:21:31;30.38;;;26.67;;
37459;SDS011;23318;50.966;5.284;2022-08-19T01:24:13;37.20;;;29.27;;
37459;SDS011;23318;50.966;5.284;2022-08-19T01:26:41;34.33;;;29.40;;
37459;SDS011;23318;50.966;5.284;2022-08-19T01:29:08;31.60;;;27.52;;
37459;SDS011;23318;50.966;5.284;2022-08-19T01:31:35;32.92;;;29.10;;
37459;SDS011;23318;50.966;5.284;2022-08-19T01:34:01;38.65;;;28.65;;
37459;SDS011;23318;50.966;5.284;2022-08-19T01:38:53;37.38;;;29.17;;
37459;SDS011;23318;50.966;5.284;2022-08-19T01:41:19;32.65;;;28.40;;
37459;SDS011;23318;50.966;5.284;2022-08-19T01:43:45;37.92;;;27.95;;
37459;SDS011;23318;50.966;5.284;2022-08-19T01:46:11;35.90;;;28.85;;
37459;SDS011;23318;50.966;5.284;2022-08-19T01:48:39;36.97;;;28.92;;
37459;SDS011;23318;50.966;5.284;2022-08-19T01:51:08;37.25;;;29.48;;
37459;SDS011;23318;50.966;5.284;2022-08-19T01:53:34;36.60;;;29.35;;
37459;SDS011;23318;50.966;5.284;2022-08-19T01:56:00;40.22;;;29.92;;
37459;SDS011;23318;50.966;5.284;2022-08-19T01:58:29;37.25;;;28.85;;
37459;SDS011;23318;50.966;5.284;2022-08-19T02:01:01;38.05;;;29.75;;
37459;SDS011;23318;50.966;5.284;2022-08-19T02:03:26;38.95;;;28.88;;
37459;SDS011;23318;50.966;5.284;2022-08-19T02:05:57;40.05;;;28.88;;
37459;SDS011;23318;50.966;5.284;2022-08-19T02:08:28;33.88;;;26.85;;
37459;SDS011;23318;50.966;5.284;2022-08-19T02:10:55;40.55;;;28.83;;
37459;SDS011;23318;50.966;5.284;2022-08-19T02:13:21;36.63;;;25.95;;
37459;SDS011;23318;50.966;5.284;2022-08-19T02:15:47;36.70;;;28.15;;
37459;SDS011;23318;50.966;5.284;2022-08-19T02:18:13;32.63;;;26.83;;
37459;SDS011;23318;50.966;5.284;2022-08-19T02:20:39;31.75;;;26.83;;
37459;SDS011;23318;50.966;5.284;2022-08-19T02:23:07;40.13;;;29.60;;
37459;SDS011;23318;50.966;5.284;2022-08-19T02:25:34;31.50;;;26.52;;
37459;SDS011;23318;50.966;5.284;2022-08-19T02:27:59;29.45;;;24.30;;
37459;SDS011;23318;50.966;5.284;2022-08-19T02:30:25;33.53;;;27.10;;
37459;SDS011;23318;50.966;5.284;2022-08-19T02:32:51;32.05;;;26.30;;
37459;SDS011;23318;50.966;5.284;2022-08-19T02:35:18;40.45;;;29.10;;
37459;SDS011;23318;50.966;5.284;2022-08-19T02:37:44;36.65;;;26.52;;
37459;SDS011;23318;50.966;5.284;2022-08-19T02:40:29;47.83;;;35.13;;
37459;SDS011;23318;50.966;5.284;2022-08-19T02:42:59;43.55;;;32.20;;
37459;SDS011;23318;50.966;5.284;2022-08-19T02:45:31;43.78;;;29.58;;
37459;SDS011;23318;50.966;5.284;2022-08-19T02:47:58;45.47;;;33.13;;
37459;SDS011;23318;50.966;5.284;2022-08-19T02:50:23;41.97;;;32.28;;
37459;SDS011;23318;50.966;5.284;2022-08-19T02:52:49;47.08;;;32.75;;
37459;SDS011;23318;50.966;5.284;2022-08-19T02:55:14;55.40;;;39.22;;
37459;SDS011;23318;50.966;5.284;2022-08-19T02:57:40;53.42;;;38.83;;
37459;SDS011;23318;50.966;5.284;2022-08-19T03:00:07;53.63;;;37.88;;
37459;SDS011;23318;50.966;5.284;2022-08-19T03:02:34;53.75;;;37.47;;
37459;SDS011;23318;50.966;5.284;2022-08-19T03:04:59;54.65;;;38.72;;
37459;SDS011;23318;50.966;5.284;2022-08-19T03:07:27;56.50;;;39.03;;
37459;SDS011;23318;50.966;5.284;2022-08-19T03:09:52;62.95;;;39.75;;
37459;SDS011;23318;50.966;5.284;2022-08-19T03:12:18;62.67;;;41.17;;
37459;SDS011;23318;50.966;5.284;2022-08-19T03:14:44;55.60;;;38.25;;
37459;SDS011;23318;50.966;5.284;2022-08-19T03:17:11;57.17;;;39.38;;
37459;SDS011;23318;50.966;5.284;2022-08-19T03:19:37;59.25;;;41.22;;
37459;SDS011;23318;50.966;5.284;2022-08-19T03:22:03;59.47;;;40.47;;
37459;SDS011;23318;50.966;5.284;2022-08-19T03:24:29;61.25;;;40.22;;
37459;SDS011;23318;50.966;5.284;2022-08-19T03:26:56;62.05;;;39.92;;
37459;SDS011;23318;50.966;5.284;2022-08-19T03:29:24;64.00;;;40.55;;
37459;SDS011;23318;50.966;5.284;2022-08-19T03:31:54;57.40;;;39.67;;
37459;SDS011;23318;50.966;5.284;2022-08-19T03:34:23;58.83;;;39.58;;
37459;SDS011;23318;50.966;5.284;2022-08-19T03:36:52;64.70;;;42.25;;
37459;SDS011;23318;50.966;5.284;2022-08-19T03:39:19;59.35;;;39.95;;
37459;SDS011;23318;50.966;5.284;2022-08-19T03:41:46;63.53;;;37.00;;
37459;SDS011;23318;50.966;5.284;2022-08-19T03:44:15;48.40;;;33.38;;
37459;SDS011;23318;50.966;5.284;2022-08-19T03:46:46;44.42;;;31.83;;
37459;SDS011;23318;50.966;5.284;2022-08-19T03:49:13;40.63;;;30.30;;
37459;SDS011;23318;50.966;5.284;2022-08-19T03:51:39;44.75;;;28.70;;
37459;SDS011;23318;50.966;5.284;2022-08-19T03:54:06;40.05;;;26.75;;
37459;SDS011;23318;50.966;5.284;2022-08-19T03:56:38;41.45;;;28.40;;
37459;SDS011;23318;50.966;5.284;2022-08-19T03:59:10;46.70;;;31.13;;
37459;SDS011;23318;50.966;5.284;2022-08-19T04:01:38;46.85;;;29.05;;
37459;SDS011;23318;50.966;5.284;2022-08-19T04:04:04;46.17;;;30.88;;
37459;SDS011;23318;50.966;5.284;2022-08-19T04:06:31;44.67;;;28.92;;
37459;SDS011;23318;50.966;5.284;2022-08-19T04:09:00;48.80;;;32.60;;
37459;SDS011;23318;50.966;5.284;2022-08-19T04:11:30;50.90;;;33.63;;
37459;SDS011;23318;50.966;5.284;2022-08-19T04:13:59;55.47;;;35.33;;
37459;SDS011;23318;50.966;5.284;2022-08-19T04:16:25;50.53;;;32.83;;
37459;SDS011;23318;50.966;5.284;2022-08-19T04:18:56;50.22;;;34.42;;
37459;SDS011;23318;50.966;5.284;2022-08-19T04:21:25;55.75;;;33.72;;
37459;SDS011;23318;50.966;5.284;2022-08-19T04:23:52;56.92;;;34.80;;
37459;SDS011;23318;50.966;5.284;2022-08-19T04:26:22;60.08;;;35.80;;
37459;SDS011;23318;50.966;5.284;2022-08-19T04:28:50;58.60;;;36.20;;
37459;SDS011;23318;50.966;5.284;2022-08-19T04:31:20;59.97;;;37.80;;
37459;SDS011;23318;50.966;5.284;2022-08-19T04:33:47;59.78;;;36.35;;
37459;SDS011;23318;50.966;5.284;2022-08-19T04:36:17;65.32;;;41.05;;
37459;SDS011;23318;50.966;5.284;2022-08-19T04:38:45;79.47;;;45.17;;
37459;SDS011;23318;50.966;5.284;2022-08-19T04:41:12;86.35;;;48.17;;
37459;SDS011;23318;50.966;5.284;2022-08-19T04:44:00;84.50;;;46.83;;
37459;SDS011;23318;50.966;5.284;2022-08-19T04:46:27;77.78;;;45.83;;
37459;SDS011;23318;50.966;5.284;2022-08-19T04:48:55;76.40;;;44.90;;
37459;SDS011;23318;50.966;5.284;2022-08-19T04:51:21;78.50;;;46.22;;
37459;SDS011;23318;50.966;5.284;2022-08-19T04:53:47;78.68;;;45.65;;
37459;SDS011;23318;50.966;5.284;2022-08-19T04:56:14;78.82;;;46.08;;
37459;SDS011;23318;50.966;5.284;2022-08-19T04:58:42;74.25;;;44.78;;
37459;SDS011;23318;50.966;5.284;2022-08-19T05:01:21;69.20;;;41.85;;
37459;SDS011;23318;50.966;5.284;2022-08-19T05:03:51;71.45;;;42.88;;
37459;SDS011;23318;50.966;5.284;2022-08-19T05:06:18;75.80;;;41.95;;
37459;SDS011;23318;50.966;5.284;2022-08-19T05:08:45;73.63;;;41.15;;
37459;SDS011;23318;50.966;5.284;2022-08-19T05:11:15;63.95;;;38.90;;
37459;SDS011;23318;50.966;5.284;2022-08-19T05:13:43;67.97;;;41.33;;
37459;SDS011;23318;50.966;5.284;2022-08-19T05:16:10;70.85;;;41.53;;
37459;SDS011;23318;50.966;5.284;2022-08-19T05:18:37;80.95;;;42.80;;
37459;SDS011;23318;50.966;5.284;2022-08-19T05:21:23;78.85;;;44.83;;
37459;SDS011;23318;50.966;5.284;2022-08-19T05:24:09;86.65;;;45.65;;
37459;SDS011;23318;50.966;5.284;2022-08-19T05:26:35;81.25;;;43.85;;
37459;SDS011;23318;50.966;5.284;2022-08-19T05:29:02;83.32;;;46.47;;
37459;SDS011;23318;50.966;5.284;2022-08-19T05:31:29;77.57;;;47.25;;
37459;SDS011;23318;50.966;5.284;2022-08-19T05:33:55;78.55;;;44.60;;
37459;SDS011;23318;50.966;5.284;2022-08-19T05:36:23;76.32;;;44.10;;
37459;SDS011;23318;50.966;5.284;2022-08-19T05:38:49;79.38;;;45.00;;
37459;SDS011;23318;50.966;5.284;2022-08-19T05:41:16;76.55;;;42.47;;
37459;SDS011;23318;50.966;5.284;2022-08-19T05:43:42;70.25;;;40.63;;
37459;SDS011;23318;50.966;5.284;2022-08-19T05:46:07;68.10;;;39.63;;
37459;SDS011;23318;50.966;5.284;2022-08-19T05:48:40;64.93;;;38.03;;
37459;SDS011;23318;50.966;5.284;2022-08-19T05:51:06;79.00;;;44.28;;
37459;SDS011;23318;50.966;5.284;2022-08-19T05:53:33;73.85;;;40.92;;
37459;SDS011;23318;50.966;5.284;2022-08-19T05:56:07;90.65;;;50.08;;
37459;SDS011;23318;50.966;5.284;2022-08-19T05:58:34;82.38;;;46.45;;
37459;SDS011;23318;50.966;5.284;2022-08-19T06:01:01;84.68;;;48.40;;
37459;SDS011;23318;50.966;5.284;2022-08-19T06:03:32;90.25;;;50.85;;
37459;SDS011;23318;50.966;5.284;2022-08-19T06:06:00;98.32;;;52.47;;
37459;SDS011;23318;50.966;5.284;2022-08-19T06:08:27;91.57;;;52.67;;
37459;SDS011;23318;50.966;5.284;2022-08-19T06:10:53;96.40;;;51.47;;
37459;SDS011;23318;50.966;5.284;2022-08-19T06:13:19;91.65;;;51.25;;
37459;SDS011;23318;50.966;5.284;2022-08-19T06:15:45;89.32;;;50.95;;
37459;SDS011;23318;50.966;5.284;2022-08-19T06:18:11;90.18;;;49.97;;
37459;SDS011;23318;50.966;5.284;2022-08-19T06:20:38;86.32;;;50.47;;
37459;SDS011;23318;50.966;5.284;2022-08-19T06:23:05;83.93;;;49.20;;
37459;SDS011;23318;50.966;5.284;2022-08-19T06:25:31;79.10;;;47.45;;
37459;SDS011;23318;50.966;5.284;2022-08-19T06:27:57;83.78;;;48.35;;
37459;SDS011;23318;50.966;5.284;2022-08-19T06:30:23;72.28;;;45.17;;
37459;SDS011;23318;50.966;5.284;2022-08-19T06:32:48;69.28;;;43.42;;
37459;SDS011;23318;50.966;5.284;2022-08-19T06:35:14;70.32;;;43.67;;
37459;SDS011;23318;50.966;5.284;2022-08-19T06:37:40;65.13;;;40.38;;
37459;SDS011;23318;50.966;5.284;2022-08-19T06:40:07;64.85;;;39.13;;
37459;SDS011;23318;50.966;5.284;2022-08-19T06:42:35;62.55;;;37.35;;
37459;SDS011;23318;50.966;5.284;2022-08-19T06:45:03;55.83;;;36.17;;
37459;SDS011;23318;50.966;5.284;2022-08-19T06:47:31;57.00;;;33.42;;
37459;SDS011;23318;50.966;5.284;2022-08-19T06:50:00;54.00;;;33.22;;
37459;SDS011;23318;50.966;5.284;2022-08-19T06:52:28;53.58;;;34.47;;
37459;SDS011;23318;50.966;5.284;2022-08-19T06:54:55;48.28;;;30.70;;
37459;SDS011;23318;50.966;5.284;2022-08-19T06:57:21;48.83;;;30.58;;
37459;SDS011;23318;50.966;5.284;2022-08-19T06:59:50;45.45;;;28.92;;
37459;SDS011;23318;50.966;5.284;2022-08-19T07:02:16;46.10;;;28.42;;
37459;SDS011;23318;50.966;5.284;2022-08-19T07:04:42;42.17;;;26.88;;
37459;SDS011;23318;50.966;5.284;2022-08-19T07:07:08;45.42;;;28.50;;
37459;SDS011;23318;50.966;5.284;2022-08-19T07:09:38;39.05;;;25.63;;
37459;SDS011;23318;50.966;5.284;2022-08-19T07:12:06;40.20;;;26.38;;
37459;SDS011;23318;50.966;5.284;2022-08-19T07:14:34;38.30;;;25.40;;
37459;SDS011;23318;50.966;5.284;2022-08-19T07:17:02;33.30;;;22.95;;
37459;SDS011;23318;50.966;5.284;2022-08-19T07:19:30;34.20;;;22.48;;
37459;SDS011;23318;50.966;5.284;2022-08-19T07:21:56;33.10;;;20.85;;
37459;SDS011;23318;50.966;5.284;2022-08-19T07:24:24;30.23;;;20.15;;
37459;SDS011;23318;50.966;5.284;2022-08-19T07:26:52;30.90;;;20.95;;
37459;SDS011;23318;50.966;5.284;2022-08-19T07:29:19;31.33;;;20.08;;
37459;SDS011;23318;50.966;5.284;2022-08-19T07:31:47;35.65;;;20.52;;
37459;SDS011;23318;50.966;5.284;2022-08-19T07:34:17;30.40;;;20.77;;
37459;SDS011;23318;50.966;5.284;2022-08-19T07:36:44;36.15;;;20.10;;
37459;SDS011;23318;50.966;5.284;2022-08-19T07:39:12;35.95;;;20.83;;
37459;SDS011;23318;50.966;5.284;2022-08-19T07:41:40;39.05;;;21.88;;
37459;SDS011;23318;50.966;5.284;2022-08-19T07:44:07;33.83;;;21.30;;
37459;SDS011;23318;50.966;5.284;2022-08-19T07:46:35;32.35;;;19.85;;
37459;SDS011;23318;50.966;5.284;2022-08-19T07:49:03;34.83;;;21.10;;
37459;SDS011;23318;50.966;5.284;2022-08-19T07:51:30;34.70;;;19.52;;
37459;SDS011;23318;50.966;5.284;2022-08-19T07:53:55;32.88;;;21.17;;
37459;SDS011;23318;50.966;5.284;2022-08-19T07:56:22;32.83;;;20.48;;
37459;SDS011;23318;50.966;5.284;2022-08-19T07:58:48;35.58;;;20.80;;
37459;SDS011;23318;50.966;5.284;2022-08-19T08:01:17;32.55;;;19.67;;
37459;SDS011;23318;50.966;5.284;2022-08-19T08:03:47;29.88;;;19.38;;
37459;SDS011;23318;50.966;5.284;2022-08-19T08:06:32;28.70;;;19.20;;
37459;SDS011;23318;50.966;5.284;2022-08-19T08:09:17;30.63;;;19.58;;
37459;SDS011;23318;50.966;5.284;2022-08-19T08:11:49;28.92;;;18.13;;
37459;SDS011;23318;50.966;5.284;2022-08-19T08:14:27;27.67;;;18.33;;
37459;SDS011;23318;50.966;5.284;2022-08-19T08:17:06;29.70;;;17.55;;
37459;SDS011;23318;50.966;5.284;2022-08-19T08:19:32;29.38;;;17.85;;
37459;SDS011;23318;50.966;5.284;2022-08-19T08:21:59;26.60;;;16.50;;
37459;SDS011;23318;50.966;5.284;2022-08-19T08:24:26;24.17;;;15.25;;
37459;SDS011;23318;50.966;5.284;2022-08-19T08:26:53;23.17;;;15.23;;
37459;SDS011;23318;50.966;5.284;2022-08-19T08:29:19;22.75;;;14.52;;
37459;SDS011;23318;50.966;5.284;2022-08-19T08:31:46;19.65;;;13.27;;
37459;SDS011;23318;50.966;5.284;2022-08-19T08:34:12;24.83;;;14.68;;
37459;SDS011;23318;50.966;5.284;2022-08-19T08:36:40;19.67;;;13.98;;
37459;SDS011;23318;50.966;5.284;2022-08-19T08:39:14;20.25;;;14.00;;
37459;SDS011;23318;50.966;5.284;2022-08-19T08:41:44;22.77;;;14.95;;
37459;SDS011;23318;50.966;5.284;2022-08-19T08:47:01;22.40;;;14.68;;
37459;SDS011;23318;50.966;5.284;2022-08-19T08:49:32;24.10;;;14.38;;
37459;SDS011;23318;50.966;5.284;2022-08-19T08:52:07;24.50;;;15.05;;
37459;SDS011;23318;50.966;5.284;2022-08-19T08:54:39;23.85;;;13.40;;
37459;SDS011;23318;50.966;5.284;2022-08-19T08:57:10;24.58;;;15.02;;
37459;SDS011;23318;50.966;5.284;2022-08-19T08:59:40;20.02;;;13.35;;
37459;SDS011;23318;50.966;5.284;2022-08-19T09:02:08;23.35;;;14.55;;
37459;SDS011;23318;50.966;5.284;2022-08-19T09:04:37;18.25;;;12.75;;
37459;SDS011;23318;50.966;5.284;2022-08-19T09:09:34;22.75;;;13.95;;
37459;SDS011;23318;50.966;5.284;2022-08-19T09:12:16;21.20;;;12.68;;
37459;SDS011;23318;50.966;5.284;2022-08-19T09:14:54;17.10;;;11.43;;
37459;SDS011;23318;50.966;5.284;2022-08-19T09:17:27;22.38;;;11.48;;
37459;SDS011;23318;50.966;5.284;2022-08-19T09:22:29;19.50;;;10.73;;
37459;SDS011;23318;50.966;5.284;2022-08-19T09:24:55;20.92;;;11.45;;
37459;SDS011;23318;50.966;5.284;2022-08-19T09:27:21;17.38;;;10.45;;
37459;SDS011;23318;50.966;5.284;2022-08-19T09:29:51;19.20;;;10.60;;
37459;SDS011;23318;50.966;5.284;2022-08-19T09:32:18;13.85;;;9.43;;
37459;SDS011;23318;50.966;5.284;2022-08-19T09:34:45;13.80;;;9.45;;
37459;SDS011;23318;50.966;5.284;2022-08-19T09:37:11;14.23;;;7.05;;
37459;SDS011;23318;50.966;5.284;2022-08-19T09:39:38;9.88;;;5.90;;
37459;SDS011;23318;50.966;5.284;2022-08-19T09:42:05;10.68;;;5.22;;
37459;SDS011;23318;50.966;5.284;2022-08-19T09:44:36;5.93;;;4.88;;
37459;SDS011;23318;50.966;5.284;2022-08-19T09:47:06;10.88;;;4.57;;
37459;SDS011;23318;50.966;5.284;2022-08-19T09:49:33;10.70;;;5.22;;
37459;SDS011;23318;50.966;5.284;2022-08-19T09:51:59;10.82;;;4.95;;
37459;SDS011;23318;50.966;5.284;2022-08-19T09:54:25;9.45;;;4.63;;
37459;SDS011;23318;50.966;5.284;2022-08-19T09:56:54;6.68;;;4.78;;
37459;SDS011;23318;50.966;5.284;2022-08-19T09:59:22;8.15;;;5.22;;
37459;SDS011;23318;50.966;5.284;2022-08-19T10:01:48;9.93;;;4.63;;
37459;SDS011;23318;50.966;5.284;2022-08-19T10:04:14;8.98;;;5.30;;
37459;SDS011;23318;50.966;5.284;2022-08-19T10:06:40;11.13;;;5.78;;
37459;SDS011;23318;50.966;5.284;2022-08-19T10:09:06;6.38;;;5.15;;
37459;SDS011;23318;50.966;5.284;2022-08-19T10:11:35;13.10;;;6.00;;
37459;SDS011;23318;50.966;5.284;2022-08-19T10:14:04;11.55;;;5.28;;
37459;SDS011;23318;50.966;5.284;2022-08-19T10:16:32;8.80;;;5.75;;
37459;SDS011;23318;50.966;5.284;2022-08-19T10:19:00;8.85;;;5.75;;
37459;SDS011;23318;50.966;5.284;2022-08-19T10:21:29;10.00;;;5.03;;
37459;SDS011;23318;50.966;5.284;2022-08-19T10:23:57;7.75;;;5.45;;
37459;SDS011;23318;50.966;5.284;2022-08-19T10:26:28;7.15;;;4.25;;
37459;SDS011;23318;50.966;5.284;2022-08-19T10:28:56;10.90;;;4.82;;
37459;SDS011;23318;50.966;5.284;2022-08-19T10:31:23;6.63;;;3.83;;
37459;SDS011;23318;50.966;5.284;2022-08-19T10:33:54;7.00;;;4.20;;
37459;SDS011;23318;50.966;5.284;2022-08-19T10:36:27;7.43;;;4.53;;
37459;SDS011;23318;50.966;5.284;2022-08-19T10:38:59;6.30;;;4.20;;
37459;SDS011;23318;50.966;5.284;2022-08-19T10:41:31;7.22;;;4.40;;
37459;SDS011;23318;50.966;5.284;2022-08-19T10:44:01;7.35;;;4.55;;
37459;SDS011;23318;50.966;5.284;2022-08-19T10:46:30;7.85;;;4.75;;
37459;SDS011;23318;50.966;5.284;2022-08-19T10:48:57;5.70;;;4.18;;
37459;SDS011;23318;50.966;5.284;2022-08-19T10:51:26;7.53;;;3.65;;
37459;SDS011;23318;50.966;5.284;2022-08-19T10:54:11;7.85;;;3.92;;
37459;SDS011;23318;50.966;5.284;2022-08-19T10:56:37;5.60;;;3.60;;
37459;SDS011;23318;50.966;5.284;2022-08-19T10:59:19;7.20;;;3.28;;
37459;SDS011;23318;50.966;5.284;2022-08-19T11:01:49;5.80;;;3.83;;
37459;SDS011;23318;50.966;5.284;2022-08-19T11:04:16;7.07;;;4.30;;
37459;SDS011;23318;50.966;5.284;2022-08-19T11:06:46;4.90;;;3.75;;
37459;SDS011;23318;50.966;5.284;2022-08-19T11:09:14;4.85;;;2.80;;
37459;SDS011;23318;50.966;5.284;2022-08-19T11:11:42;6.68;;;3.80;;
37459;SDS011;23318;50.966;5.284;2022-08-19T11:14:09;7.22;;;3.28;;
37459;SDS011;23318;50.966;5.284;2022-08-19T11:16:36;6.03;;;3.55;;
37459;SDS011;23318;50.966;5.284;2022-08-19T11:19:04;5.10;;;3.35;;
37459;SDS011;23318;50.966;5.284;2022-08-19T11:21:33;7.28;;;4.10;;
37459;SDS011;23318;50.966;5.284;2022-08-19T11:24:03;7.93;;;4.00;;
37459;SDS011;23318;50.966;5.284;2022-08-19T11:26:35;6.28;;;3.60;;
37459;SDS011;23318;50.966;5.284;2022-08-19T11:29:02;7.30;;;3.65;;
37459;SDS011;23318;50.966;5.284;2022-08-19T11:31:30;10.57;;;3.40;;
37459;SDS011;23318;50.966;5.284;2022-08-19T11:33:57;10.38;;;3.10;;
37459;SDS011;23318;50.966;5.284;2022-08-19T11:36:25;5.97;;;3.30;;
37459;SDS011;23318;50.966;5.284;2022-08-19T11:38:51;4.88;;;3.88;;
37459;SDS011;23318;50.966;5.284;2022-08-19T11:41:17;6.18;;;3.60;;
37459;SDS011;23318;50.966;5.284;2022-08-19T11:43:44;6.43;;;3.28;;
37459;SDS011;23318;50.966;5.284;2022-08-19T11:46:11;7.55;;;3.55;;
37459;SDS011;23318;50.966;5.284;2022-08-19T11:48:39;7.53;;;3.50;;
37459;SDS011;23318;50.966;5.284;2022-08-19T11:51:07;7.90;;;3.53;;
37459;SDS011;23318;50.966;5.284;2022-08-19T11:53:34;4.68;;;3.45;;
37459;SDS011;23318;50.966;5.284;2022-08-19T11:56:02;7.05;;;3.70;;
37459;SDS011;23318;50.966;5.284;2022-08-19T11:58:28;5.30;;;3.10;;
37459;SDS011;23318;50.966;5.284;2022-08-19T12:00:54;6.00;;;3.30;;
37459;SDS011;23318;50.966;5.284;2022-08-19T12:03:20;8.55;;;3.88;;
37459;SDS011;23318;50.966;5.284;2022-08-19T12:05:46;7.60;;;2.90;;
37459;SDS011;23318;50.966;5.284;2022-08-19T12:08:12;4.55;;;3.13;;
37459;SDS011;23318;50.966;5.284;2022-08-19T12:10:39;7.20;;;3.85;;
37459;SDS011;23318;50.966;5.284;2022-08-19T12:13:07;4.70;;;3.10;;
37459;SDS011;23318;50.966;5.284;2022-08-19T12:15:37;3.53;;;2.72;;
37459;SDS011;23318;50.966;5.284;2022-08-19T12:18:05;7.13;;;2.85;;
37459;SDS011;23318;50.966;5.284;2022-08-19T12:20:33;4.22;;;2.88;;
37459;SDS011;23318;50.966;5.284;2022-08-19T12:23:05;6.22;;;2.83;;
37459;SDS011;23318;50.966;5.284;2022-08-19T12:25:32;3.58;;;2.78;;
37459;SDS011;23318;50.966;5.284;2022-08-19T12:27:59;3.42;;;2.95;;
37459;SDS011;23318;50.966;5.284;2022-08-19T12:30:25;5.00;;;2.72;;
37459;SDS011;23318;50.966;5.284;2022-08-19T12:32:51;4.97;;;2.40;;
37459;SDS011;23318;50.966;5.284;2022-08-19T12:35:17;3.38;;;2.80;;
37459;SDS011;23318;50.966;5.284;2022-08-19T12:37:45;6.15;;;3.05;;
37459;SDS011;23318;50.966;5.284;2022-08-19T12:40:11;4.13;;;2.72;;
37459;SDS011;23318;50.966;5.284;2022-08-19T12:42:38;6.00;;;3.33;;
37459;SDS011;23318;50.966;5.284;2022-08-19T12:45:10;6.07;;;2.67;;
37459;SDS011;23318;50.966;5.284;2022-08-19T12:47:37;8.15;;;2.95;;
37459;SDS011;23318;50.966;5.284;2022-08-19T12:50:03;7.95;;;3.72;;
37459;SDS011;23318;50.966;5.284;2022-08-19T12:52:31;3.38;;;3.00;;
37459;SDS011;23318;50.966;5.284;2022-08-19T12:54:57;3.05;;;2.75;;
37459;SDS011;23318;50.966;5.284;2022-08-19T12:57:24;5.07;;;3.25;;
37459;SDS011;23318;50.966;5.284;2022-08-19T12:59:52;3.33;;;2.65;;
37459;SDS011;23318;50.966;5.284;2022-08-19T13:02:19;5.40;;;2.88;;
37459;SDS011;23318;50.966;5.284;2022-08-19T13:04:45;5.82;;;3.20;;
37459;SDS011;23318;50.966;5.284;2022-08-19T13:07:11;4.18;;;3.00;;
37459;SDS011;23318;50.966;5.284;2022-08-19T13:09:37;4.72;;;2.97;;
37459;SDS011;23318;50.966;5.284;2022-08-19T13:12:05;2.75;;;2.20;;
37459;SDS011;23318;50.966;5.284;2022-08-19T13:14:33;3.58;;;2.88;;
37459;SDS011;23318;50.966;5.284;2022-08-19T13:17:00;4.13;;;2.50;;
37459;SDS011;23318;50.966;5.284;2022-08-19T13:19:26;3.92;;;2.72;;
37459;SDS011;23318;50.966;5.284;2022-08-19T13:21:52;5.80;;;2.45;;
37459;SDS011;23318;50.966;5.284;2022-08-19T13:24:20;4.95;;;2.47;;
37459;SDS011;23318;50.966;5.284;2022-08-19T13:26:46;3.03;;;2.30;;
37459;SDS011;23318;50.966;5.284;2022-08-19T13:29:12;5.72;;;2.88;;
37459;SDS011;23318;50.966;5.284;2022-08-19T13:31:56;4.28;;;2.10;;
37459;SDS011;23318;50.966;5.284;2022-08-19T13:34:42;2.28;;;2.05;;
37459;SDS011;23318;50.966;5.284;2022-08-19T13:37:07;3.65;;;2.28;;
37459;SDS011;23318;50.966;5.284;2022-08-19T13:39:33;9.02;;;2.20;;
37459;SDS011;23318;50.966;5.284;2022-08-19T13:42:00;2.28;;;2.00;;
37459;SDS011;23318;50.966;5.284;2022-08-19T13:44:27;3.53;;;2.50;;
37459;SDS011;23318;50.966;5.284;2022-08-19T13:47:00;2.55;;;2.33;;
37459;SDS011;23318;50.966;5.284;2022-08-19T13:49:31;5.60;;;2.45;;
37459;SDS011;23318;50.966;5.284;2022-08-19T13:51:57;6.60;;;2.20;;
37459;SDS011;23318;50.966;5.284;2022-08-19T13:54:23;3.03;;;2.20;;
37459;SDS011;23318;50.966;5.284;2022-08-19T13:56:49;2.38;;;1.90;;
37459;SDS011;23318;50.966;5.284;2022-08-19T13:59:15;2.97;;;2.70;;
37459;SDS011;23318;50.966;5.284;2022-08-19T14:01:41;3.45;;;2.50;;
37459;SDS011;23318;50.966;5.284;2022-08-19T14:04:07;4.20;;;2.60;;
37459;SDS011;23318;50.966;5.284;2022-08-19T14:06:33;3.13;;;2.60;;
37459;SDS011;23318;50.966;5.284;2022-08-19T14:08:59;3.97;;;2.40;;
37459;SDS011;23318;50.966;5.284;2022-08-19T14:11:24;4.18;;;2.45;;
37459;SDS011;23318;50.966;5.284;2022-08-19T14:13:51;4.50;;;2.15;;
37459;SDS011;23318;50.966;5.284;2022-08-19T14:16:16;6.13;;;2.55;;
37459;SDS011;23318;50.966;5.284;2022-08-19T14:18:42;2.88;;;2.60;;
37459;SDS011;23318;50.966;5.284;2022-08-19T14:21:13;2.55;;;2.35;;
37459;SDS011;23318;50.966;5.284;2022-08-19T14:23:42;2.80;;;2.58;;
37459;SDS011;23318;50.966;5.284;2022-08-19T14:26:09;4.35;;;2.30;;
37459;SDS011;23318;50.966;5.284;2022-08-19T14:28:37;6.07;;;2.40;;
37459;SDS011;23318;50.966;5.284;2022-08-19T14:31:06;3.60;;;2.58;;
37459;SDS011;23318;50.966;5.284;2022-08-19T14:33:33;3.40;;;3.00;;
37459;SDS011;23318;50.966;5.284;2022-08-19T14:35:58;2.47;;;1.90;;
37459;SDS011;23318;50.966;5.284;2022-08-19T14:38:25;2.80;;;2.60;;
37459;SDS011;23318;50.966;5.284;2022-08-19T14:40:51;2.78;;;2.50;;
37459;SDS011;23318;50.966;5.284;2022-08-19T14:43:17;2.17;;;2.08;;
37459;SDS011;23318;50.966;5.284;2022-08-19T14:45:43;3.00;;;2.30;;